createdAt,value
2018-01-21T00:02:32.250Z,-0.64
2018-01-21T00:12:05.197Z,-0.54
2018-01-21T00:21:34.471Z,-0.47
2018-01-21T00:31:14.889Z,-0.59
2018-01-21T00:40:43.871Z,-0.83
2018-01-21T00:50:24.085Z,-0.76
2018-01-21T00:59:52.996Z,-0.91
2018-01-21T01:09:29.674Z,-0.61
2018-01-21T01:19:06.388Z,-0.71
2018-01-21T01:28:47.018Z,-0.58
2018-01-21T01:38:16.334Z,-0.65
2018-01-21T01:47:57.245Z,-0.54
2018-01-21T01:57:29.981Z,-0.33
2018-01-21T02:07:03.055Z,-0.23
2018-01-21T02:16:32.154Z,-0.32
2018-01-21T02:26:08.862Z,-0.26
2018-01-21T02:35:45.622Z,-0.43
2018-01-21T02:45:26.202Z,-0.54
2018-01-21T02:54:58.949Z,-0.69
2018-01-21T03:04:31.591Z,-0.71
2018-01-21T03:14:04.967Z,-0.68
2018-01-21T03:23:33.804Z,-0.86
2018-01-21T03:33:10.239Z,-1.02
2018-01-21T03:42:46.988Z,-1.02
2018-01-21T03:52:23.879Z,-1.08
2018-01-21T04:02:00.732Z,-1.13
2018-01-21T04:11:41.340Z,-1.13
2018-01-21T04:21:10.365Z,-1.03
2018-01-21T04:30:51.383Z,-1.17
2018-01-21T04:40:24.506Z,-0.93
2018-01-21T04:49:53.579Z,-0.82
2018-01-21T04:59:30.403Z,-0.93
2018-01-21T05:09:11.241Z,-0.87
2018-01-21T05:18:44.543Z,-0.90
2018-01-21T05:28:17.501Z,-0.87
2018-01-21T05:37:46.949Z,-0.79
2018-01-21T05:47:23.799Z,-0.65
2018-01-21T05:57:04.496Z,-0.65
2018-01-21T06:06:38.089Z,-0.65
2018-01-21T06:16:10.994Z,-0.51
2018-01-21T06:25:40.203Z,-0.53
2018-01-21T06:35:20.671Z,-0.64
2018-01-21T06:44:53.660Z,-0.71
2018-01-21T06:54:26.365Z,-0.76
2018-01-21T07:03:59.334Z,-0.99
2018-01-21T07:13:31.873Z,-1.01
2018-01-21T07:23:04.930Z,-0.82
2018-01-21T07:32:38.070Z,-0.69
2018-01-21T07:42:10.656Z,-0.59
2018-01-21T07:51:43.433Z,-0.38
2018-01-21T08:01:16.439Z,0.03
2018-01-21T08:10:46.068Z,0.21
2018-01-21T08:20:27.297Z,0.49
2018-01-21T08:29:56.605Z,0.97
2018-01-21T08:39:37.387Z,1.23
2018-01-21T08:49:10.827Z,1.72
2018-01-21T08:58:41.022Z,2.13
2018-01-21T09:08:18.263Z,2.26
2018-01-21T09:17:54.260Z,2.23
2018-01-21T09:27:30.336Z,2.03
2018-01-21T09:37:07.955Z,2.60
2018-01-21T09:46:45.288Z,3.31
2018-01-21T09:56:22.477Z,3.87
2018-01-21T10:05:59.762Z,4.32
2018-01-21T10:15:37.938Z,5.10
2018-01-21T10:25:16.380Z,5.60
2018-01-21T10:34:57.363Z,6.59
2018-01-21T10:44:31.195Z,7.60
2018-01-21T10:54:01.224Z,7.83
2018-01-21T11:03:41.944Z,7.88
2018-01-21T11:13:10.872Z,8.60
2018-01-21T11:22:46.539Z,8.97
2018-01-21T11:32:22.203Z,8.39
2018-01-21T11:41:57.610Z,7.78
2018-01-21T11:51:33.983Z,7.47
2018-01-21T12:01:10.441Z,7.19
2018-01-21T12:10:47.757Z,7.41
2018-01-21T12:20:26.066Z,7.75
2018-01-21T12:30:03.065Z,7.83
2018-01-21T12:39:40.001Z,7.91
2018-01-21T12:49:17.306Z,8.75
2018-01-21T12:58:55.873Z,7.56
2018-01-21T13:08:29.434Z,6.86
2018-01-21T13:18:04.262Z,6.47
2018-01-21T13:27:40.406Z,6.15
2018-01-21T13:37:17.024Z,6.32
2018-01-21T13:46:57.462Z,6.08
2018-01-21T13:56:26.321Z,5.97
2018-01-21T14:06:02.211Z,5.62
2018-01-21T14:15:37.843Z,5.38
2018-01-21T14:25:14.183Z,5.39
2018-01-21T14:34:50.350Z,5.16
2018-01-21T14:44:26.736Z,5.10
2018-01-21T14:54:03.043Z,4.99
2018-01-21T15:03:43.121Z,4.99
2018-01-21T15:13:11.678Z,4.85
2018-01-21T15:22:47.983Z,4.95
2018-01-21T15:32:24.262Z,4.69
2018-01-21T15:42:00.086Z,4.48
2018-01-21T15:51:36.946Z,4.61
2018-01-21T16:01:13.193Z,4.29
2018-01-21T16:10:49.616Z,4.08
2018-01-21T16:20:26.188Z,4.08
2018-01-21T16:30:06.640Z,3.93
2018-01-21T16:39:34.811Z,3.80
2018-01-21T16:49:11.241Z,3.83
2018-01-21T16:58:51.937Z,3.77
2018-01-21T17:08:20.749Z,3.62
2018-01-21T17:17:56.659Z,3.28
2018-01-21T17:27:32.659Z,3.31
2018-01-21T17:37:08.974Z,3.06
2018-01-21T17:46:44.696Z,3.14
2018-01-21T17:56:21.395Z,2.63
2018-01-21T18:05:57.398Z,2.02
2018-01-21T18:15:33.357Z,1.68
2018-01-21T18:25:13.410Z,1.18
2018-01-21T18:34:41.698Z,1.37
2018-01-21T18:44:21.899Z,0.93
2018-01-21T18:53:50.280Z,1.46
2018-01-21T19:03:31.145Z,1.40
2018-01-21T19:13:00.068Z,1.48
2018-01-21T19:22:36.611Z,1.59
2018-01-21T19:32:13.003Z,1.12
2018-01-21T19:41:48.203Z,1.46
2018-01-21T19:51:29.270Z,1.02
2018-01-21T20:01:05.596Z,1.23
2018-01-21T20:10:43.605Z,2.24
2018-01-21T20:20:20.891Z,2.37
2018-01-21T20:29:57.887Z,2.34
2018-01-21T20:39:34.743Z,2.67
2018-01-21T20:49:11.888Z,2.59
2018-01-21T20:58:52.863Z,2.73
2018-01-21T21:08:25.970Z,2.56
2018-01-21T21:17:54.731Z,2.48
2018-01-21T21:27:30.970Z,2.42
2018-01-21T21:37:07.840Z,2.41
2018-01-21T21:46:44.306Z,2.52
2018-01-21T21:56:21.233Z,2.46
2018-01-21T22:05:57.941Z,2.35
2018-01-21T22:15:34.168Z,2.26
2018-01-21T22:25:10.500Z,2.05
2018-01-21T22:34:47.000Z,1.91
2018-01-21T22:44:22.715Z,1.50
2018-01-21T22:53:58.834Z,1.23
2018-01-21T23:03:34.631Z,1.20
2018-01-21T23:13:11.070Z,1.15
2018-01-21T23:22:47.253Z,1.01
2018-01-21T23:32:23.635Z,1.01
2018-01-21T23:42:00.241Z,0.92
2018-01-21T23:51:37.266Z,1.05
